Aérodrome :







RETROUVEZ-NOUS SUR...

 
LOGIN :

S'inscrire | Disclaimer

   EN    FR    IT 

 









Légende :    VFR   VFR Marginal   IFR   IFR Intensif   IFR Très Intensif
Visi : 
Plafond : 
>= 8 km
>= 3000ft
5 à 8 km
1000 à 3000 ft
1500m à 5 km
500 à 1000 ft
800 à 1500m
200 à 500 ft
< 800m
< 200 ft
Symboles :   Orages  Brouillard  Fortes neiges  Fortes précipitations  Vent > 20 kt






- Altitude de l'aérodrome : 577 ft


KVSF - Hartness State (Springfield)

DERNIER METAR :
  • 121254Z AUTO 23009KT 10SM BKN028 BKN037 25/19 A2959 RMK AO2 SLP017 T02500189

METARs EXPIRÉS :
  • 121214Z AUTO 24010KT 10SM BKN028 24/18 A2959 RMK AO2 T02390183
  • 121154Z AUTO 24008KT 190V250 10SM FEW031 SCT040 SCT055 24/19 A2958 RMK AO2 RAB16E26 SLP012 P0000 60000 T02440189 10244 20222 53013
  • 121054Z AUTO 21006KT 10SM OVC033 23/18 A2956 RMK AO2 SLP005 T02330183
  • 121043Z AUTO 23008KT 10SM SCT025 OVC035 23/18 A2955 RMK AO2 T02280183

TAF N/A
FIR KZBW / Amérique du Nord



MET'MAP, la Météo Aéronautique d'un coup d'oeil ! - Copyright ORBIFLY Décembre 2007 - Disclaimer

ORBIFLY MET'MAP TEAM :

Programmation & Développement : Alexandra Zaïnal
Sur une idée originale de : Baudouin d'Aumeries
Assistance à la programmation : Marc-Olivier Méhu
Soutien technique & logistique : Manuel Goepfert

Contact : metmap@orbifly.com




SOURCES & CREDITS :

   NOAA